sensor_id;sensor_type;location;lat;lon;timestamp;P1;durP1;ratioP1;P2;durP2;ratioP2
14377;SDS011;7272;53.668;9.578;2023-07-13T00:01:52;14.93;;;4.72;;
14377;SDS011;7272;53.668;9.578;2023-07-13T00:04:53;10.43;;;3.57;;
14377;SDS011;7272;53.668;9.578;2023-07-13T00:07:55;10.33;;;3.30;;
14377;SDS011;7272;53.668;9.578;2023-07-13T00:10:56;11.43;;;3.47;;
14377;SDS011;7272;53.668;9.578;2023-07-13T00:13:57;7.47;;;2.90;;
14377;SDS011;7272;53.668;9.578;2023-07-13T00:16:59;5.93;;;2.87;;
14377;SDS011;7272;53.668;9.578;2023-07-13T00:20:00;9.80;;;4.63;;
14377;SDS011;7272;53.668;9.578;2023-07-13T00:23:03;13.13;;;4.90;;
14377;SDS011;7272;53.668;9.578;2023-07-13T00:26:05;8.63;;;4.13;;
14377;SDS011;7272;53.668;9.578;2023-07-13T00:29:08;7.37;;;3.60;;
14377;SDS011;7272;53.668;9.578;2023-07-13T00:32:10;7.93;;;3.63;;
14377;SDS011;7272;53.668;9.578;2023-07-13T00:35:12;10.33;;;4.67;;
14377;SDS011;7272;53.668;9.578;2023-07-13T00:38:14;10.57;;;4.00;;
14377;SDS011;7272;53.668;9.578;2023-07-13T00:41:15;12.70;;;5.10;;
14377;SDS011;7272;53.668;9.578;2023-07-13T00:44:18;10.90;;;5.15;;
14377;SDS011;7272;53.668;9.578;2023-07-13T00:47:21;7.67;;;3.57;;
14377;SDS011;7272;53.668;9.578;2023-07-13T00:50:23;13.13;;;4.50;;
14377;SDS011;7272;53.668;9.578;2023-07-13T00:53:26;11.43;;;3.60;;
14377;SDS011;7272;53.668;9.578;2023-07-13T00:56:30;9.07;;;4.40;;
14377;SDS011;7272;53.668;9.578;2023-07-13T00:59:35;9.57;;;4.40;;
14377;SDS011;7272;53.668;9.578;2023-07-13T01:02:37;8.88;;;5.55;;
14377;SDS011;7272;53.668;9.578;2023-07-13T01:05:40;7.60;;;5.23;;
14377;SDS011;7272;53.668;9.578;2023-07-13T01:08:42;4.90;;;4.17;;
14377;SDS011;7272;53.668;9.578;2023-07-13T01:11:43;7.10;;;4.57;;
14377;SDS011;7272;53.668;9.578;2023-07-13T01:14:46;6.07;;;4.67;;
14377;SDS011;7272;53.668;9.578;2023-07-13T01:17:47;6.33;;;4.37;;
14377;SDS011;7272;53.668;9.578;2023-07-13T01:20:51;4.90;;;4.23;;
14377;SDS011;7272;53.668;9.578;2023-07-13T01:23:53;7.20;;;5.77;;
14377;SDS011;7272;53.668;9.578;2023-07-13T01:26:55;6.30;;;5.70;;
14377;SDS011;7272;53.668;9.578;2023-07-13T01:29:56;5.17;;;4.67;;
14377;SDS011;7272;53.668;9.578;2023-07-13T01:33:04;6.53;;;4.90;;
14377;SDS011;7272;53.668;9.578;2023-07-13T01:36:06;8.70;;;4.77;;
14377;SDS011;7272;53.668;9.578;2023-07-13T01:39:08;6.97;;;4.77;;
14377;SDS011;7272;53.668;9.578;2023-07-13T01:42:09;6.30;;;4.70;;
14377;SDS011;7272;53.668;9.578;2023-07-13T01:45:10;5.23;;;4.80;;
14377;SDS011;7272;53.668;9.578;2023-07-13T01:48:12;9.05;;;6.78;;
14377;SDS011;7272;53.668;9.578;2023-07-13T01:51:15;5.70;;;5.20;;
14377;SDS011;7272;53.668;9.578;2023-07-13T01:54:19;8.10;;;5.57;;
14377;SDS011;7272;53.668;9.578;2023-07-13T01:57:20;7.60;;;5.63;;
14377;SDS011;7272;53.668;9.578;2023-07-13T02:00:21;9.80;;;5.13;;
14377;SDS011;7272;53.668;9.578;2023-07-13T02:03:22;14.20;;;6.57;;
14377;SDS011;7272;53.668;9.578;2023-07-13T02:06:25;7.47;;;6.68;;
14377;SDS011;7272;53.668;9.578;2023-07-13T02:09:26;6.00;;;5.40;;
14377;SDS011;7272;53.668;9.578;2023-07-13T02:12:27;6.67;;;5.97;;
14377;SDS011;7272;53.668;9.578;2023-07-13T02:15:28;6.37;;;5.00;;
14377;SDS011;7272;53.668;9.578;2023-07-13T02:18:29;6.80;;;5.30;;
14377;SDS011;7272;53.668;9.578;2023-07-13T02:21:31;7.40;;;6.23;;
14377;SDS011;7272;53.668;9.578;2023-07-13T02:24:32;6.73;;;6.03;;
14377;SDS011;7272;53.668;9.578;2023-07-13T02:27:34;5.70;;;5.30;;
14377;SDS011;7272;53.668;9.578;2023-07-13T02:30:35;9.03;;;7.90;;
14377;SDS011;7272;53.668;9.578;2023-07-13T02:33:36;6.63;;;5.90;;
14377;SDS011;7272;53.668;9.578;2023-07-13T02:36:38;6.80;;;6.07;;
14377;SDS011;7272;53.668;9.578;2023-07-13T02:39:39;6.70;;;5.23;;
14377;SDS011;7272;53.668;9.578;2023-07-13T02:42:41;7.70;;;6.77;;
14377;SDS011;7272;53.668;9.578;2023-07-13T02:45:43;8.60;;;6.13;;
14377;SDS011;7272;53.668;9.578;2023-07-13T02:48:44;6.10;;;5.50;;
14377;SDS011;7272;53.668;9.578;2023-07-13T02:51:48;10.30;;;7.80;;
14377;SDS011;7272;53.668;9.578;2023-07-13T02:54:49;10.90;;;8.02;;
14377;SDS011;7272;53.668;9.578;2023-07-13T02:57:51;6.57;;;5.57;;
14377;SDS011;7272;53.668;9.578;2023-07-13T03:00:52;6.93;;;6.27;;
14377;SDS011;7272;53.668;9.578;2023-07-13T03:03:53;9.80;;;7.00;;
14377;SDS011;7272;53.668;9.578;2023-07-13T03:06:57;9.27;;;6.10;;
14377;SDS011;7272;53.668;9.578;2023-07-13T03:10:02;8.13;;;6.07;;
14377;SDS011;7272;53.668;9.578;2023-07-13T03:13:14;8.17;;;7.10;;
14377;SDS011;7272;53.668;9.578;2023-07-13T03:16:16;7.53;;;6.72;;
14377;SDS011;7272;53.668;9.578;2023-07-13T03:19:20;6.70;;;4.73;;
14377;SDS011;7272;53.668;9.578;2023-07-13T03:22:25;4.93;;;4.43;;
14377;SDS011;7272;53.668;9.578;2023-07-13T03:25:26;7.43;;;5.60;;
14377;SDS011;7272;53.668;9.578;2023-07-13T03:28:28;7.00;;;5.33;;
14377;SDS011;7272;53.668;9.578;2023-07-13T03:31:33;5.83;;;5.17;;
14377;SDS011;7272;53.668;9.578;2023-07-13T03:34:35;7.67;;;6.87;;
14377;SDS011;7272;53.668;9.578;2023-07-13T03:37:37;7.55;;;6.53;;
14377;SDS011;7272;53.668;9.578;2023-07-13T03:40:43;6.40;;;5.20;;
14377;SDS011;7272;53.668;9.578;2023-07-13T03:43:45;4.80;;;4.40;;
14377;SDS011;7272;53.668;9.578;2023-07-13T03:46:51;5.80;;;5.27;;
14377;SDS011;7272;53.668;9.578;2023-07-13T03:49:52;5.67;;;5.13;;
14377;SDS011;7272;53.668;9.578;2023-07-13T03:52:55;5.63;;;5.00;;
14377;SDS011;7272;53.668;9.578;2023-07-13T03:55:57;5.60;;;4.73;;
14377;SDS011;7272;53.668;9.578;2023-07-13T03:59:00;6.07;;;5.30;;
14377;SDS011;7272;53.668;9.578;2023-07-13T04:02:03;7.55;;;6.80;;
14377;SDS011;7272;53.668;9.578;2023-07-13T04:05:07;8.13;;;5.20;;
14377;SDS011;7272;53.668;9.578;2023-07-13T04:08:09;5.57;;;4.83;;
14377;SDS011;7272;53.668;9.578;2023-07-13T04:11:10;4.30;;;3.90;;
14377;SDS011;7272;53.668;9.578;2023-07-13T04:14:12;4.93;;;4.50;;
14377;SDS011;7272;53.668;9.578;2023-07-13T04:17:13;6.33;;;4.50;;
14377;SDS011;7272;53.668;9.578;2023-07-13T04:20:14;4.47;;;4.07;;
14377;SDS011;7272;53.668;9.578;2023-07-13T04:23:16;7.55;;;5.75;;
14377;SDS011;7272;53.668;9.578;2023-07-13T04:26:17;5.13;;;4.40;;
14377;SDS011;7272;53.668;9.578;2023-07-13T04:29:21;5.77;;;3.97;;
14377;SDS011;7272;53.668;9.578;2023-07-13T04:32:22;6.67;;;4.53;;
14377;SDS011;7272;53.668;9.578;2023-07-13T04:35:23;6.97;;;3.97;;
14377;SDS011;7272;53.668;9.578;2023-07-13T04:38:26;4.43;;;4.00;;
14377;SDS011;7272;53.668;9.578;2023-07-13T04:41:28;8.02;;;4.80;;
14377;SDS011;7272;53.668;9.578;2023-07-13T04:44:29;5.30;;;4.80;;
14377;SDS011;7272;53.668;9.578;2023-07-13T04:47:30;5.13;;;4.63;;
14377;SDS011;7272;53.668;9.578;2023-07-13T04:50:32;7.27;;;4.63;;
14377;SDS011;7272;53.668;9.578;2023-07-13T04:53:33;8.73;;;5.30;;
14377;SDS011;7272;53.668;9.578;2023-07-13T04:56:35;7.60;;;5.03;;
14377;SDS011;7272;53.668;9.578;2023-07-13T04:59:36;6.37;;;5.20;;
14377;SDS011;7272;53.668;9.578;2023-07-13T05:02:38;10.53;;;5.07;;
14377;SDS011;7272;53.668;9.578;2023-07-13T05:05:39;6.65;;;5.18;;
14377;SDS011;7272;53.668;9.578;2023-07-13T05:08:41;7.50;;;5.35;;
14377;SDS011;7272;53.668;9.578;2023-07-13T05:11:44;8.30;;;4.70;;
14377;SDS011;7272;53.668;9.578;2023-07-13T05:14:46;6.67;;;4.93;;
14377;SDS011;7272;53.668;9.578;2023-07-13T05:17:49;6.23;;;4.33;;
14377;SDS011;7272;53.668;9.578;2023-07-13T05:20:57;6.90;;;4.50;;
14377;SDS011;7272;53.668;9.578;2023-07-13T05:24:00;5.27;;;4.00;;
14377;SDS011;7272;53.668;9.578;2023-07-13T05:27:01;8.97;;;5.07;;
14377;SDS011;7272;53.668;9.578;2023-07-13T05:30:03;7.07;;;4.75;;
14377;SDS011;7272;53.668;9.578;2023-07-13T05:33:05;6.67;;;4.27;;
14377;SDS011;7272;53.668;9.578;2023-07-13T05:36:06;5.87;;;4.40;;
14377;SDS011;7272;53.668;9.578;2023-07-13T05:39:08;9.20;;;4.70;;
14377;SDS011;7272;53.668;9.578;2023-07-13T05:42:09;6.43;;;4.17;;
14377;SDS011;7272;53.668;9.578;2023-07-13T05:45:11;6.13;;;4.20;;
14377;SDS011;7272;53.668;9.578;2023-07-13T05:48:12;7.20;;;4.00;;
14377;SDS011;7272;53.668;9.578;2023-07-13T05:51:13;5.77;;;4.37;;
14377;SDS011;7272;53.668;9.578;2023-07-13T05:54:15;8.00;;;4.27;;
14377;SDS011;7272;53.668;9.578;2023-07-13T05:57:16;4.47;;;3.53;;
14377;SDS011;7272;53.668;9.578;2023-07-13T06:00:17;8.73;;;4.23;;
14377;SDS011;7272;53.668;9.578;2023-07-13T06:03:19;5.87;;;3.77;;
14377;SDS011;7272;53.668;9.578;2023-07-13T06:06:20;4.90;;;3.73;;
14377;SDS011;7272;53.668;9.578;2023-07-13T06:09:22;6.63;;;3.60;;
14377;SDS011;7272;53.668;9.578;2023-07-13T06:12:23;6.93;;;4.50;;
14377;SDS011;7272;53.668;9.578;2023-07-13T06:15:24;5.97;;;4.40;;
14377;SDS011;7272;53.668;9.578;2023-07-13T06:18:25;6.03;;;3.43;;
14377;SDS011;7272;53.668;9.578;2023-07-13T06:21:26;6.17;;;3.23;;
14377;SDS011;7272;53.668;9.578;2023-07-13T06:24:28;4.63;;;2.97;;
14377;SDS011;7272;53.668;9.578;2023-07-13T06:27:30;6.33;;;3.70;;
14377;SDS011;7272;53.668;9.578;2023-07-13T06:30:31;10.90;;;4.10;;
14377;SDS011;7272;53.668;9.578;2023-07-13T06:33:32;6.22;;;4.60;;
14377;SDS011;7272;53.668;9.578;2023-07-13T06:36:34;7.67;;;4.37;;
14377;SDS011;7272;53.668;9.578;2023-07-13T06:39:37;5.77;;;3.30;;
14377;SDS011;7272;53.668;9.578;2023-07-13T06:42:38;7.20;;;3.27;;
14377;SDS011;7272;53.668;9.578;2023-07-13T06:45:40;6.23;;;3.57;;
14377;SDS011;7272;53.668;9.578;2023-07-13T06:48:42;5.53;;;3.43;;
14377;SDS011;7272;53.668;9.578;2023-07-13T06:51:43;4.93;;;3.23;;
14377;SDS011;7272;53.668;9.578;2023-07-13T06:54:45;6.22;;;4.15;;
14377;SDS011;7272;53.668;9.578;2023-07-13T06:57:47;7.25;;;4.10;;
14377;SDS011;7272;53.668;9.578;2023-07-13T07:00:49;5.80;;;3.40;;
14377;SDS011;7272;53.668;9.578;2023-07-13T07:03:51;5.83;;;2.90;;
14377;SDS011;7272;53.668;9.578;2023-07-13T07:06:52;5.97;;;3.10;;
14377;SDS011;7272;53.668;9.578;2023-07-13T07:09:54;5.50;;;3.40;;
14377;SDS011;7272;53.668;9.578;2023-07-13T07:12:55;6.23;;;3.30;;
14377;SDS011;7272;53.668;9.578;2023-07-13T07:15:57;6.38;;;4.03;;
14377;SDS011;7272;53.668;9.578;2023-07-13T07:19:00;7.13;;;4.03;;
14377;SDS011;7272;53.668;9.578;2023-07-13T07:22:01;6.23;;;3.27;;
14377;SDS011;7272;53.668;9.578;2023-07-13T07:25:03;9.10;;;3.73;;
14377;SDS011;7272;53.668;9.578;2023-07-13T07:28:05;7.07;;;3.30;;
14377;SDS011;7272;53.668;9.578;2023-07-13T07:31:06;9.40;;;3.90;;
14377;SDS011;7272;53.668;9.578;2023-07-13T07:34:07;6.77;;;3.63;;
14377;SDS011;7272;53.668;9.578;2023-07-13T07:37:09;9.90;;;3.60;;
14377;SDS011;7272;53.668;9.578;2023-07-13T07:40:13;7.32;;;4.28;;
14377;SDS011;7272;53.668;9.578;2023-07-13T07:43:14;7.83;;;3.10;;
14377;SDS011;7272;53.668;9.578;2023-07-13T07:46:15;5.60;;;2.80;;
14377;SDS011;7272;53.668;9.578;2023-07-13T07:49:17;6.67;;;2.80;;
14377;SDS011;7272;53.668;9.578;2023-07-13T07:52:18;5.70;;;3.27;;
14377;SDS011;7272;53.668;9.578;2023-07-13T07:55:20;8.30;;;3.30;;
14377;SDS011;7272;53.668;9.578;2023-07-13T07:58:21;6.57;;;3.47;;
14377;SDS011;7272;53.668;9.578;2023-07-13T08:01:22;10.33;;;3.47;;
14377;SDS011;7272;53.668;9.578;2023-07-13T08:04:24;4.90;;;2.83;;
14377;SDS011;7272;53.668;9.578;2023-07-13T08:07:25;5.67;;;3.27;;
14377;SDS011;7272;53.668;9.578;2023-07-13T08:10:27;6.33;;;3.20;;
14377;SDS011;7272;53.668;9.578;2023-07-13T08:13:28;6.97;;;3.47;;
14377;SDS011;7272;53.668;9.578;2023-07-13T08:16:29;6.75;;;3.45;;
14377;SDS011;7272;53.668;9.578;2023-07-13T08:19:32;6.43;;;3.30;;
14377;SDS011;7272;53.668;9.578;2023-07-13T08:22:34;4.77;;;3.27;;
14377;SDS011;7272;53.668;9.578;2023-07-13T08:25:36;9.40;;;3.03;;
14377;SDS011;7272;53.668;9.578;2023-07-13T08:28:37;7.43;;;3.33;;
14377;SDS011;7272;53.668;9.578;2023-07-13T08:31:39;6.70;;;3.47;;
14377;SDS011;7272;53.668;9.578;2023-07-13T08:34:40;9.07;;;3.70;;
14377;SDS011;7272;53.668;9.578;2023-07-13T08:37:41;6.55;;;3.90;;
14377;SDS011;7272;53.668;9.578;2023-07-13T08:40:43;5.83;;;3.30;;
14377;SDS011;7272;53.668;9.578;2023-07-13T08:43:50;3.53;;;3.00;;
14377;SDS011;7272;53.668;9.578;2023-07-13T08:46:55;5.40;;;2.90;;
14377;SDS011;7272;53.668;9.578;2023-07-13T08:49:59;4.50;;;2.63;;
14377;SDS011;7272;53.668;9.578;2023-07-13T08:53:01;5.20;;;2.93;;
14377;SDS011;7272;53.668;9.578;2023-07-13T08:56:07;3.93;;;2.30;;
14377;SDS011;7272;53.668;9.578;2023-07-13T08:59:13;8.65;;;3.50;;
14377;SDS011;7272;53.668;9.578;2023-07-13T09:02:20;6.10;;;2.50;;
14377;SDS011;7272;53.668;9.578;2023-07-13T09:05:26;4.90;;;2.63;;
14377;SDS011;7272;53.668;9.578;2023-07-13T09:08:44;4.17;;;2.80;;
14377;SDS011;7272;53.668;9.578;2023-07-13T09:11:59;5.03;;;2.63;;
14377;SDS011;7272;53.668;9.578;2023-07-13T09:15:09;3.78;;;2.42;;
14377;SDS011;7272;53.668;9.578;2023-07-13T09:18:21;4.68;;;2.53;;
14377;SDS011;7272;53.668;9.578;2023-07-13T09:21:34;2.88;;;2.22;;
14377;SDS011;7272;53.668;9.578;2023-07-13T09:24:50;4.60;;;2.60;;
14377;SDS011;7272;53.668;9.578;2023-07-13T09:27:58;2.50;;;2.03;;
14377;SDS011;7272;53.668;9.578;2023-07-13T09:31:03;6.15;;;3.05;;
14377;SDS011;7272;53.668;9.578;2023-07-13T09:34:08;4.53;;;2.67;;
14377;SDS011;7272;53.668;9.578;2023-07-13T09:37:10;5.80;;;2.38;;
14377;SDS011;7272;53.668;9.578;2023-07-13T09:40:27;4.05;;;2.10;;
14377;SDS011;7272;53.668;9.578;2023-07-13T09:43:35;4.78;;;2.60;;
14377;SDS011;7272;53.668;9.578;2023-07-13T09:46:36;4.28;;;2.40;;
14377;SDS011;7272;53.668;9.578;2023-07-13T09:49:38;4.00;;;2.80;;
14377;SDS011;7272;53.668;9.578;2023-07-13T09:52:40;3.50;;;2.25;;
14377;SDS011;7272;53.668;9.578;2023-07-13T09:55:45;5.05;;;2.22;;
14377;SDS011;7272;53.668;9.578;2023-07-13T09:58:48;3.40;;;1.80;;
14377;SDS011;7272;53.668;9.578;2023-07-13T10:01:49;5.30;;;2.22;;
14377;SDS011;7272;53.668;9.578;2023-07-13T10:04:55;4.30;;;2.53;;
14377;SDS011;7272;53.668;9.578;2023-07-13T10:07:58;5.80;;;2.20;;
14377;SDS011;7272;53.668;9.578;2023-07-13T10:11:00;4.75;;;2.53;;
14377;SDS011;7272;53.668;9.578;2023-07-13T10:14:11;6.80;;;2.40;;
14377;SDS011;7272;53.668;9.578;2023-07-13T10:17:14;3.95;;;2.10;;
14377;SDS011;7272;53.668;9.578;2023-07-13T10:20:25;5.28;;;2.33;;
14377;SDS011;7272;53.668;9.578;2023-07-13T10:23:28;4.85;;;2.45;;
14377;SDS011;7272;53.668;9.578;2023-07-13T10:26:33;3.67;;;2.17;;
14377;SDS011;7272;53.668;9.578;2023-07-13T10:29:36;6.67;;;2.60;;
14377;SDS011;7272;53.668;9.578;2023-07-13T10:32:45;4.88;;;2.20;;
14377;SDS011;7272;53.668;9.578;2023-07-13T10:35:47;4.18;;;2.13;;
14377;SDS011;7272;53.668;9.578;2023-07-13T10:38:51;5.72;;;2.00;;
14377;SDS011;7272;53.668;9.578;2023-07-13T10:41:55;3.85;;;2.20;;
14377;SDS011;7272;53.668;9.578;2023-07-13T10:45:00;4.35;;;2.20;;
14377;SDS011;7272;53.668;9.578;2023-07-13T10:48:01;4.68;;;2.30;;
14377;SDS011;7272;53.668;9.578;2023-07-13T10:51:04;5.95;;;1.85;;
14377;SDS011;7272;53.668;9.578;2023-07-13T10:54:11;3.43;;;1.43;;
14377;SDS011;7272;53.668;9.578;2023-07-13T10:57:17;1.73;;;1.40;;
14377;SDS011;7272;53.668;9.578;2023-07-13T11:00:21;3.50;;;1.60;;
14377;SDS011;7272;53.668;9.578;2023-07-13T11:03:23;3.05;;;1.50;;
14377;SDS011;7272;53.668;9.578;2023-07-13T11:06:30;2.58;;;1.52;;
14377;SDS011;7272;53.668;9.578;2023-07-13T11:09:38;2.30;;;1.35;;
14377;SDS011;7272;53.668;9.578;2023-07-13T11:12:50;4.55;;;1.63;;
14377;SDS011;7272;53.668;9.578;2023-07-13T11:15:54;2.95;;;1.60;;
14377;SDS011;7272;53.668;9.578;2023-07-13T11:19:08;2.17;;;1.30;;
14377;SDS011;7272;53.668;9.578;2023-07-13T11:22:40;3.25;;;1.20;;
14377;SDS011;7272;53.668;9.578;2023-07-13T11:25:43;4.17;;;2.03;;
14377;SDS011;7272;53.668;9.578;2023-07-13T11:28:45;4.53;;;1.88;;
14377;SDS011;7272;53.668;9.578;2023-07-13T11:31:52;6.47;;;1.80;;
14377;SDS011;7272;53.668;9.578;2023-07-13T11:34:55;6.85;;;2.40;;
14377;SDS011;7272;53.668;9.578;2023-07-13T11:37:56;4.20;;;2.28;;
14377;SDS011;7272;53.668;9.578;2023-07-13T11:40:58;6.13;;;2.50;;
14377;SDS011;7272;53.668;9.578;2023-07-13T11:44:11;4.27;;;2.07;;
14377;SDS011;7272;53.668;9.578;2023-07-13T11:47:17;4.60;;;2.23;;
14377;SDS011;7272;53.668;9.578;2023-07-13T11:50:22;5.20;;;2.67;;
14377;SDS011;7272;53.668;9.578;2023-07-13T11:53:26;5.23;;;2.23;;
14377;SDS011;7272;53.668;9.578;2023-07-13T11:56:30;3.85;;;2.60;;
14377;SDS011;7272;53.668;9.578;2023-07-13T11:59:32;3.40;;;1.90;;
14377;SDS011;7272;53.668;9.578;2023-07-13T12:02:40;2.77;;;2.07;;
14377;SDS011;7272;53.668;9.578;2023-07-13T12:05:54;2.83;;;2.10;;
14377;SDS011;7272;53.668;9.578;2023-07-13T12:08:57;3.35;;;2.45;;
14377;SDS011;7272;53.668;9.578;2023-07-13T12:11:59;2.78;;;2.40;;
14377;SDS011;7272;53.668;9.578;2023-07-13T12:15:04;1.87;;;1.70;;
14377;SDS011;7272;53.668;9.578;2023-07-13T12:18:11;3.90;;;2.70;;
14377;SDS011;7272;53.668;9.578;2023-07-13T12:21:16;2.57;;;2.30;;
14377;SDS011;7272;53.668;9.578;2023-07-13T12:24:19;4.40;;;2.40;;
14377;SDS011;7272;53.668;9.578;2023-07-13T12:27:23;3.17;;;2.88;;
14377;SDS011;7272;53.668;9.578;2023-07-13T12:30:27;4.03;;;2.70;;
14377;SDS011;7272;53.668;9.578;2023-07-13T12:33:32;3.63;;;2.50;;
14377;SDS011;7272;53.668;9.578;2023-07-13T12:36:34;2.43;;;2.23;;
14377;SDS011;7272;53.668;9.578;2023-07-13T12:39:38;3.83;;;2.17;;
14377;SDS011;7272;53.668;9.578;2023-07-13T12:42:45;2.60;;;2.40;;
14377;SDS011;7272;53.668;9.578;2023-07-13T12:45:55;3.63;;;2.17;;
14377;SDS011;7272;53.668;9.578;2023-07-13T12:48:58;3.40;;;2.00;;
14377;SDS011;7272;53.668;9.578;2023-07-13T12:52:00;2.10;;;1.90;;
14377;SDS011;7272;53.668;9.578;2023-07-13T12:55:03;2.60;;;2.40;;
14377;SDS011;7272;53.668;9.578;2023-07-13T12:58:12;1.90;;;1.73;;
14377;SDS011;7272;53.668;9.578;2023-07-13T13:01:19;3.03;;;1.83;;
14377;SDS011;7272;53.668;9.578;2023-07-13T13:04:23;2.88;;;2.10;;
14377;SDS011;7272;53.668;9.578;2023-07-13T13:07:24;2.30;;;1.90;;
14377;SDS011;7272;53.668;9.578;2023-07-13T13:10:26;3.95;;;2.40;;
14377;SDS011;7272;53.668;9.578;2023-07-13T13:13:27;2.23;;;1.80;;
14377;SDS011;7272;53.668;9.578;2023-07-13T13:16:29;2.20;;;1.90;;
14377;SDS011;7272;53.668;9.578;2023-07-13T13:19:33;2.37;;;2.03;;
14377;SDS011;7272;53.668;9.578;2023-07-13T13:22:34;2.40;;;2.20;;
14377;SDS011;7272;53.668;9.578;2023-07-13T13:25:35;3.30;;;2.27;;
14377;SDS011;7272;53.668;9.578;2023-07-13T13:28:36;2.83;;;2.58;;
14377;SDS011;7272;53.668;9.578;2023-07-13T13:31:38;2.03;;;1.90;;
14377;SDS011;7272;53.668;9.578;2023-07-13T13:34:39;3.17;;;2.03;;
14377;SDS011;7272;53.668;9.578;2023-07-13T13:37:41;2.37;;;2.10;;
14377;SDS011;7272;53.668;9.578;2023-07-13T13:40:43;2.73;;;1.87;;
14377;SDS011;7272;53.668;9.578;2023-07-13T13:43:45;2.90;;;2.33;;
14377;SDS011;7272;53.668;9.578;2023-07-13T13:46:47;2.30;;;2.10;;
14377;SDS011;7272;53.668;9.578;2023-07-13T13:49:51;3.90;;;2.33;;
14377;SDS011;7272;53.668;9.578;2023-07-13T13:52:52;2.67;;;2.07;;
14377;SDS011;7272;53.668;9.578;2023-07-13T13:55:54;2.83;;;2.13;;
14377;SDS011;7272;53.668;9.578;2023-07-13T13:58:55;2.77;;;2.10;;
14377;SDS011;7272;53.668;9.578;2023-07-13T14:01:56;3.23;;;2.20;;
14377;SDS011;7272;53.668;9.578;2023-07-13T14:05:01;4.93;;;2.40;;
14377;SDS011;7272;53.668;9.578;2023-07-13T14:08:03;5.28;;;2.80;;
14377;SDS011;7272;53.668;9.578;2023-07-13T14:11:04;2.60;;;2.40;;
14377;SDS011;7272;53.668;9.578;2023-07-13T14:14:09;2.67;;;2.40;;
14377;SDS011;7272;53.668;9.578;2023-07-13T14:17:18;3.20;;;2.90;;
14377;SDS011;7272;53.668;9.578;2023-07-13T14:20:23;2.73;;;1.97;;
14377;SDS011;7272;53.668;9.578;2023-07-13T14:23:25;4.03;;;2.40;;
14377;SDS011;7272;53.668;9.578;2023-07-13T14:26:26;3.03;;;2.72;;
14377;SDS011;7272;53.668;9.578;2023-07-13T14:29:28;3.70;;;2.13;;
14377;SDS011;7272;53.668;9.578;2023-07-13T14:32:32;3.80;;;2.10;;
14377;SDS011;7272;53.668;9.578;2023-07-13T14:35:34;3.13;;;1.90;;
14377;SDS011;7272;53.668;9.578;2023-07-13T14:38:35;3.43;;;1.90;;
14377;SDS011;7272;53.668;9.578;2023-07-13T14:41:36;2.35;;;1.70;;
14377;SDS011;7272;53.668;9.578;2023-07-13T14:44:38;1.77;;;1.50;;
14377;SDS011;7272;53.668;9.578;2023-07-13T14:47:40;2.13;;;1.77;;
14377;SDS011;7272;53.668;9.578;2023-07-13T14:50:43;2.23;;;1.47;;
14377;SDS011;7272;53.668;9.578;2023-07-13T14:53:45;2.83;;;1.50;;
14377;SDS011;7272;53.668;9.578;2023-07-13T14:56:47;3.63;;;2.80;;
14377;SDS011;7272;53.668;9.578;2023-07-13T14:59:48;2.37;;;1.60;;
14377;SDS011;7272;53.668;9.578;2023-07-13T15:02:52;2.43;;;1.70;;
14377;SDS011;7272;53.668;9.578;2023-07-13T15:05:55;2.55;;;1.60;;
14377;SDS011;7272;53.668;9.578;2023-07-13T15:08:57;2.03;;;1.43;;
14377;SDS011;7272;53.668;9.578;2023-07-13T15:11:58;1.93;;;1.40;;
14377;SDS011;7272;53.668;9.578;2023-07-13T15:14:59;2.50;;;1.60;;
14377;SDS011;7272;53.668;9.578;2023-07-13T15:18:00;2.03;;;1.50;;
14377;SDS011;7272;53.668;9.578;2023-07-13T15:21:02;1.77;;;1.60;;
14377;SDS011;7272;53.668;9.578;2023-07-13T15:24:04;1.98;;;1.75;;
14377;SDS011;7272;53.668;9.578;2023-07-13T15:27:09;2.13;;;1.73;;
14377;SDS011;7272;53.668;9.578;2023-07-13T15:30:12;3.93;;;1.60;;
14377;SDS011;7272;53.668;9.578;2023-07-13T15:33:15;1.70;;;1.60;;
14377;SDS011;7272;53.668;9.578;2023-07-13T15:36:23;2.67;;;1.70;;
14377;SDS011;7272;53.668;9.578;2023-07-13T15:39:26;2.75;;;2.00;;
14377;SDS011;7272;53.668;9.578;2023-07-13T15:42:27;2.70;;;1.90;;
14377;SDS011;7272;53.668;9.578;2023-07-13T15:45:28;2.23;;;1.63;;
14377;SDS011;7272;53.668;9.578;2023-07-13T15:48:29;2.40;;;1.40;;
14377;SDS011;7272;53.668;9.578;2023-07-13T15:51:31;3.53;;;1.80;;
14377;SDS011;7272;53.668;9.578;2023-07-13T15:54:35;1.83;;;1.70;;
14377;SDS011;7272;53.668;9.578;2023-07-13T15:57:36;3.13;;;1.80;;
14377;SDS011;7272;53.668;9.578;2023-07-13T16:00:37;2.30;;;1.50;;
14377;SDS011;7272;53.668;9.578;2023-07-13T16:03:39;2.57;;;1.67;;
14377;SDS011;7272;53.668;9.578;2023-07-13T16:06:41;3.30;;;1.60;;
14377;SDS011;7272;53.668;9.578;2023-07-13T16:09:43;3.30;;;1.90;;
14377;SDS011;7272;53.668;9.578;2023-07-13T16:12:45;3.43;;;1.80;;
14377;SDS011;7272;53.668;9.578;2023-07-13T16:15:47;3.20;;;2.00;;
14377;SDS011;7272;53.668;9.578;2023-07-13T16:18:48;1.87;;;1.60;;
14377;SDS011;7272;53.668;9.578;2023-07-13T16:21:50;3.53;;;1.98;;
14377;SDS011;7272;53.668;9.578;2023-07-13T16:24:51;1.63;;;1.50;;
14377;SDS011;7272;53.668;9.578;2023-07-13T16:27:56;4.50;;;1.90;;
14377;SDS011;7272;53.668;9.578;2023-07-13T16:31:00;2.77;;;1.93;;
14377;SDS011;7272;53.668;9.578;2023-07-13T16:34:02;2.93;;;1.50;;
14377;SDS011;7272;53.668;9.578;2023-07-13T16:37:09;3.85;;;2.05;;
14377;SDS011;7272;53.668;9.578;2023-07-13T16:40:18;2.53;;;1.80;;
14377;SDS011;7272;53.668;9.578;2023-07-13T16:43:22;2.27;;;1.80;;
14377;SDS011;7272;53.668;9.578;2023-07-13T16:46:23;5.13;;;1.80;;
14377;SDS011;7272;53.668;9.578;2023-07-13T16:49:26;2.03;;;1.70;;
14377;SDS011;7272;53.668;9.578;2023-07-13T16:52:29;2.67;;;1.70;;
14377;SDS011;7272;53.668;9.578;2023-07-13T16:55:30;2.57;;;2.10;;
14377;SDS011;7272;53.668;9.578;2023-07-13T16:58:32;4.80;;;2.00;;
14377;SDS011;7272;53.668;9.578;2023-07-13T17:01:34;3.83;;;2.03;;
14377;SDS011;7272;53.668;9.578;2023-07-13T17:04:36;1.83;;;1.60;;
14377;SDS011;7272;53.668;9.578;2023-07-13T17:07:38;2.47;;;1.80;;
14377;SDS011;7272;53.668;9.578;2023-07-13T17:10:39;2.10;;;1.40;;
14377;SDS011;7272;53.668;9.578;2023-07-13T17:13:42;3.37;;;1.90;;
14377;SDS011;7272;53.668;9.578;2023-07-13T17:16:43;2.92;;;1.77;;
14377;SDS011;7272;53.668;9.578;2023-07-13T17:19:46;3.33;;;1.70;;
14377;SDS011;7272;53.668;9.578;2023-07-13T17:22:53;3.43;;;1.40;;
14377;SDS011;7272;53.668;9.578;2023-07-13T17:25:54;1.70;;;1.40;;
14377;SDS011;7272;53.668;9.578;2023-07-13T17:28:56;2.67;;;1.80;;
14377;SDS011;7272;53.668;9.578;2023-07-13T17:31:57;2.33;;;1.60;;
14377;SDS011;7272;53.668;9.578;2023-07-13T17:34:58;2.70;;;1.83;;
14377;SDS011;7272;53.668;9.578;2023-07-13T17:38:00;2.70;;;1.45;;
14377;SDS011;7272;53.668;9.578;2023-07-13T17:41:03;2.83;;;1.53;;
14377;SDS011;7272;53.668;9.578;2023-07-13T17:44:04;1.27;;;1.17;;
14377;SDS011;7272;53.668;9.578;2023-07-13T17:47:07;2.33;;;1.50;;
14377;SDS011;7272;53.668;9.578;2023-07-13T17:50:25;5.37;;;1.50;;
14377;SDS011;7272;53.668;9.578;2023-07-13T17:53:29;1.90;;;1.70;;
14377;SDS011;7272;53.668;9.578;2023-07-13T17:56:32;3.40;;;1.73;;
14377;SDS011;7272;53.668;9.578;2023-07-13T17:59:34;2.75;;;1.90;;
14377;SDS011;7272;53.668;9.578;2023-07-13T18:02:35;3.33;;;1.50;;
14377;SDS011;7272;53.668;9.578;2023-07-13T18:05:36;3.13;;;1.60;;
14377;SDS011;7272;53.668;9.578;2023-07-13T18:08:38;4.10;;;1.60;;
14377;SDS011;7272;53.668;9.578;2023-07-13T18:11:40;2.37;;;1.70;;
14377;SDS011;7272;53.668;9.578;2023-07-13T18:14:41;3.22;;;1.85;;
14377;SDS011;7272;53.668;9.578;2023-07-13T18:17:45;2.85;;;1.70;;
14377;SDS011;7272;53.668;9.578;2023-07-13T18:20:48;2.87;;;1.67;;
14377;SDS011;7272;53.668;9.578;2023-07-13T18:23:50;3.53;;;1.70;;
14377;SDS011;7272;53.668;9.578;2023-07-13T18:26:52;2.80;;;1.53;;
14377;SDS011;7272;53.668;9.578;2023-07-13T18:29:53;1.60;;;1.47;;
14377;SDS011;7272;53.668;9.578;2023-07-13T18:32:56;2.42;;;1.80;;
14377;SDS011;7272;53.668;9.578;2023-07-13T18:35:59;1.77;;;1.40;;
14377;SDS011;7272;53.668;9.578;2023-07-13T18:39:03;1.90;;;1.80;;